Time;durP1;ratioP1;P1;durP2;ratioP2;P2;SDS_P1;SDS_P2;PMS_P1;PMS_P2;Temp;Humidity;BMP_temperature;BMP_pressure;BME280_temperature;BME280_humidity;BME280_pressure;Samples;Min_cycle;Max_cycle;Signal;HPM_P1;HPM_P2
2023/06/22 00:01:13;;;;;;;10.27;9.23;;;20.50;99.90;;;;;;5203609;28;20434;-42
2023/06/22 00:03:44;;;;;;;10.50;8.83;;;20.40;99.90;;;;;;5180405;28;20188;-41
2023/06/22 00:06:15;;;;;;;16.20;8.70;;;20.40;99.90;;;;;;5177015;28;20192;-42
2023/06/22 00:08:45;;;;;;;12.10;10.23;;;20.30;99.90;;;;;;5200404;28;20233;-42
2023/06/22 00:11:16;;;;;;;10.77;9.03;;;20.30;99.90;;;;;;5210135;28;20179;-42
2023/06/22 00:13:48;;;;;;;14.33;8.80;;;20.30;99.90;;;;;;5192614;28;20282;-42
2023/06/22 00:16:19;;;;;;;9.63;8.70;;;20.20;99.90;;;;;;5204663;28;20179;-42
2023/06/22 00:18:50;;;;;;;11.03;9.20;;;20.20;99.90;;;;;;5198854;28;20458;-43
2023/06/22 00:21:21;;;;;;;13.30;9.50;;;20.20;99.90;;;;;;5188864;28;20173;-42
2023/06/22 00:23:52;;;;;;;12.50;9.47;;;20.10;99.90;;;;;;5209993;28;20182;-42
2023/06/22 00:26:22;;;;;;;10.23;9.20;;;20.10;99.90;;;;;;5179735;28;20746;-42
2023/06/22 00:28:53;;;;;;;11.20;10.07;;;20.00;99.90;;;;;;5188527;28;20203;-42
2023/06/22 00:31:24;;;;;;;11.33;9.17;;;20.00;99.90;;;;;;5199759;28;20224;-43
2023/06/22 00:33:55;;;;;;;11.30;8.17;;;19.90;99.90;;;;;;5185885;28;20242;-43
2023/06/22 00:36:29;;;;;;;13.80;8.83;;;19.90;99.90;;;;;;5203693;28;20184;-43
2023/06/22 00:39:00;;;;;;;10.47;8.80;;;19.90;99.90;;;;;;5203253;28;20196;-42
2023/06/22 00:41:30;;;;;;;10.67;9.10;;;19.90;99.90;;;;;;5199202;28;20429;-42
2023/06/22 00:44:01;;;;;;;10.00;9.00;;;19.80;99.90;;;;;;5190767;28;20317;-42
2023/06/22 00:46:32;;;;;;;12.73;9.50;;;19.80;99.90;;;;;;5199105;28;20211;-42
2023/06/22 00:49:05;;;;;;;15.20;9.97;;;19.70;99.90;;;;;;5203767;28;20187;-43
2023/06/22 00:51:38;;;;;;;11.80;9.67;;;19.70;99.90;;;;;;5205107;28;20223;-42
2023/06/22 00:54:09;;;;;;;10.57;8.20;;;19.70;99.90;;;;;;5172144;28;20466;-43
2023/06/22 00:56:41;;;;;;;14.27;9.77;;;19.70;99.90;;;;;;5202895;28;20782;-42
2023/06/22 00:59:12;;;;;;;13.60;10.40;;;19.70;99.90;;;;;;5194107;28;20462;-42
2023/06/22 01:01:43;;;;;;;12.07;10.77;;;19.60;99.90;;;;;;5190734;28;20434;-42
2023/06/22 01:04:15;;;;;;;10.80;9.43;;;19.60;99.90;;;;;;5206039;28;20465;-42
2023/06/22 01:07:18;;;;;;;11.87;8.87;;;19.60;99.90;;;;;;5204043;28;20496;-43
2023/06/22 01:10:17;;;;;;;12.07;10.20;;;19.60;99.90;;;;;;5192594;28;20435;-42
2023/06/22 01:13:00;;;;;;;11.53;10.33;;;19.50;99.90;;;;;;5189147;28;20907;-43
2023/06/22 01:15:43;;;;;;;11.90;9.40;;;19.50;99.90;;;;;;5205255;28;20427;-42
2023/06/22 01:18:16;;;;;;;10.30;9.33;;;19.50;99.90;;;;;;5205311;28;20927;-42
2023/06/22 01:20:47;;;;;;;14.23;10.70;;;19.40;99.90;;;;;;5195707;28;20411;-42
2023/06/22 01:23:44;;;;;;;15.10;11.40;;;19.40;99.90;;;;;;5199639;28;20438;-42
2023/06/22 01:26:50;;;;;;;14.53;11.10;;;19.40;99.90;;;;;;5208886;28;20483;-42
2023/06/22 01:29:22;;;;;;;11.80;10.60;;;19.30;99.90;;;;;;5201593;28;20804;-43
2023/06/22 01:31:56;;;;;;;14.03;11.33;;;19.30;99.90;;;;;;5203232;28;20430;-43
2023/06/22 01:34:28;;;;;;;13.07;10.13;;;19.30;99.90;;;;;;5189317;28;20434;-42
2023/06/22 01:37:00;;;;;;;14.47;11.70;;;19.30;99.90;;;;;;5194415;28;20442;-42
2023/06/22 01:39:32;;;;;;;11.87;10.70;;;19.20;99.90;;;;;;5202352;28;20450;-42
2023/06/22 01:42:05;;;;;;;11.00;9.80;;;19.20;99.90;;;;;;5184488;28;20951;-41
2023/06/22 01:44:36;;;;;;;15.10;11.83;;;19.20;99.90;;;;;;5191604;28;20420;-42
2023/06/22 01:47:07;;;;;;;13.80;10.83;;;19.20;99.90;;;;;;5200321;28;20462;-42
2023/06/22 01:49:38;;;;;;;16.43;11.70;;;19.10;99.90;;;;;;5197514;28;20422;-43
2023/06/22 01:52:09;;;;;;;12.80;11.00;;;19.10;99.90;;;;;;5191948;28;20434;-43
2023/06/22 01:54:41;;;;;;;17.30;12.47;;;19.10;99.90;;;;;;5179732;28;20192;-41
2023/06/22 01:57:12;;;;;;;16.23;13.17;;;19.00;99.90;;;;;;5187681;28;20438;-42
2023/06/22 01:59:46;;;;;;;17.73;13.27;;;19.00;99.90;;;;;;5191930;28;20419;-42
2023/06/22 02:02:20;;;;;;;16.17;13.30;;;19.00;99.90;;;;;;5203342;28;20442;-42
2023/06/22 02:05:01;;;;;;;22.30;12.90;;;19.00;99.90;;;;;;5202928;28;20937;-42
2023/06/22 02:07:37;;;;;;;23.47;14.00;;;19.00;99.90;;;;;;5196219;28;20461;-42
2023/06/22 02:10:09;;;;;;;16.70;14.30;;;19.00;99.90;;;;;;5187003;28;20435;-42
2023/06/22 02:12:43;;;;;;;21.63;15.67;;;19.00;99.90;;;;;;5177070;28;20556;-42
2023/06/22 02:15:14;;;;;;;21.00;15.43;;;19.00;99.90;;;;;;5170862;28;20456;-43
2023/06/22 02:17:44;;;;;;;20.93;15.67;;;19.00;99.90;;;;;;5207190;28;20462;-42
2023/06/22 02:20:17;;;;;;;17.83;14.33;;;19.00;99.90;;;;;;5184230;28;20189;-42
2023/06/22 02:22:48;;;;;;;25.80;18.10;;;19.00;99.90;;;;;;5186709;28;20192;-43
2023/06/22 02:25:19;;;;;;;20.63;15.60;;;18.90;99.90;;;;;;5178077;28;20431;-44
2023/06/22 02:27:50;;;;;;;21.23;16.93;;;18.90;99.90;;;;;;5184692;28;20585;-43
2023/06/22 02:30:20;;;;;;;19.50;16.20;;;18.90;99.90;;;;;;5200457;28;20447;-43
2023/06/22 02:32:58;;;;;;;19.50;16.57;;;19.00;99.90;;;;;;5191190;28;20203;-43
2023/06/22 02:35:31;;;;;;;23.43;14.60;;;19.00;99.90;;;;;;5207208;28;20559;-43
2023/06/22 02:38:03;;;;;;;19.80;15.47;;;19.00;99.90;;;;;;5199204;28;20462;-44
2023/06/22 02:40:34;;;;;;;21.33;15.83;;;19.00;99.90;;;;;;5166456;28;20442;-42
2023/06/22 02:43:05;;;;;;;23.80;15.27;;;19.00;99.90;;;;;;5200842;28;20458;-42
2023/06/22 02:45:35;;;;;;;19.90;15.17;;;19.00;99.90;;;;;;5203198;28;20188;-42
2023/06/22 02:48:06;;;;;;;22.93;15.90;;;19.10;99.90;;;;;;5172485;28;20284;-43
2023/06/22 02:50:37;;;;;;;21.37;15.47;;;19.10;99.90;;;;;;5196838;28;20270;-42
2023/06/22 02:53:07;;;;;;;23.70;14.37;;;19.10;99.90;;;;;;5209792;28;20208;-43
2023/06/22 02:55:39;;;;;;;22.83;15.30;;;19.20;99.90;;;;;;5195612;28;20206;-41
2023/06/22 02:58:10;;;;;;;16.90;14.33;;;19.30;99.90;;;;;;5205799;28;20705;-43
2023/06/22 03:00:41;;;;;;;21.80;15.10;;;19.30;99.90;;;;;;5208268;28;20469;-42
2023/06/22 03:03:11;;;;;;;20.00;13.80;;;19.30;99.90;;;;;;5206153;28;20207;-42
2023/06/22 03:05:42;;;;;;;21.43;15.57;;;19.30;99.90;;;;;;5176198;28;20195;-43
2023/06/22 03:08:13;;;;;;;21.33;15.80;;;19.40;99.90;;;;;;5206563;28;20208;-43
2023/06/22 03:10:44;;;;;;;18.60;14.40;;;19.30;99.90;;;;;;5209390;28;20198;-42
2023/06/22 03:13:15;;;;;;;18.77;14.87;;;19.30;99.90;;;;;;5206778;28;20239;-42
2023/06/22 03:15:45;;;;;;;19.60;15.00;;;19.30;99.90;;;;;;5203878;28;20184;-42
2023/06/22 03:18:17;;;;;;;27.77;14.13;;;19.30;99.90;;;;;;5206448;28;20433;-43
2023/06/22 03:20:48;;;;;;;18.47;14.73;;;19.30;99.90;;;;;;5200757;28;20192;-42
2023/06/22 03:23:18;;;;;;;21.80;15.53;;;19.30;99.90;;;;;;5210197;28;20800;-43
2023/06/22 03:25:49;;;;;;;22.77;15.40;;;19.40;99.90;;;;;;5187417;28;20188;-43
2023/06/22 03:28:20;;;;;;;16.70;13.33;;;19.40;99.90;;;;;;5204787;28;20247;-43
2023/06/22 03:30:51;;;;;;;18.27;14.27;;;19.40;99.90;;;;;;5204022;28;20176;-43
2023/06/22 03:33:22;;;;;;;24.03;14.20;;;19.50;99.90;;;;;;5184656;28;20200;-42
2023/06/22 03:35:53;;;;;;;21.87;14.50;;;19.50;99.90;;;;;;5202038;28;20174;-42
2023/06/22 03:38:24;;;;;;;18.13;13.90;;;19.50;99.90;;;;;;5196682;28;20975;-41
2023/06/22 03:40:55;;;;;;;21.40;15.00;;;19.50;99.90;;;;;;5168647;28;20461;-43
2023/06/22 03:43:26;;;;;;;19.43;14.13;;;19.50;99.90;;;;;;5171012;28;20314;-43
2023/06/22 03:45:56;;;;;;;18.40;13.83;;;19.60;99.90;;;;;;5197744;28;20508;-41
2023/06/22 03:48:27;;;;;;;16.93;14.60;;;19.60;99.90;;;;;;5187437;28;20207;-43
2023/06/22 03:51:00;;;;;;;19.73;15.07;;;19.70;99.90;;;;;;5203362;28;20275;-44
2023/06/22 03:53:30;;;;;;;18.10;13.93;;;19.70;99.90;;;;;;5192203;28;20222;-42
2023/06/22 03:56:01;;;;;;;30.43;14.03;;;19.70;99.90;;;;;;5195530;28;20426;-42
2023/06/22 03:58:33;;;;;;;15.80;12.63;;;19.70;99.90;;;;;;5209051;28;20845;-42
2023/06/22 04:01:04;;;;;;;14.33;12.13;;;19.70;99.90;;;;;;5176840;28;20176;-42
2023/06/22 04:03:34;;;;;;;16.03;11.33;;;19.80;99.90;;;;;;5203789;28;20477;-42
2023/06/22 04:06:05;;;;;;;13.83;10.97;;;19.80;99.90;;;;;;5207623;28;20584;-41
2023/06/22 04:08:36;;;;;;;13.40;11.80;;;19.80;99.90;;;;;;5204085;28;20310;-42
2023/06/22 04:11:06;;;;;;;12.57;11.00;;;19.90;99.90;;;;;;5193754;28;20183;-42
2023/06/22 04:13:37;;;;;;;11.40;9.90;;;20.00;99.90;;;;;;5202956;28;20294;-42
2023/06/22 04:16:08;;;;;;;13.70;10.17;;;20.10;99.90;;;;;;5183788;28;20518;-42
2023/06/22 04:18:38;;;;;;;12.03;9.23;;;20.10;99.90;;;;;;5192342;28;20226;-42
2023/06/22 04:21:10;;;;;;;19.93;8.80;;;20.20;99.90;;;;;;5210706;28;20632;-42
2023/06/22 04:23:41;;;;;;;10.90;8.93;;;20.30;99.90;;;;;;5205728;28;20187;-45
2023/06/22 04:26:13;;;;;;;10.27;8.50;;;20.50;99.90;;;;;;5209794;28;20930;-42
2023/06/22 04:28:50;;;;;;;9.43;8.53;;;20.60;99.90;;;;;;5205541;28;20234;-42
2023/06/22 04:31:20;;;;;;;8.83;7.93;;;20.60;99.90;;;;;;5186002;28;20439;-45
2023/06/22 04:33:53;;;;;;;8.13;7.43;;;20.70;99.90;;;;;;5202466;28;20980;-44
2023/06/22 04:36:23;;;;;;;9.37;8.57;;;20.90;99.90;;;;;;5191136;28;20207;-44
2023/06/22 04:38:55;;;;;;;14.53;7.77;;;21.30;99.90;;;;;;5204704;28;20470;-44
2023/06/22 04:41:26;;;;;;;15.30;8.33;;;21.60;99.90;;;;;;5189082;28;20211;-44
2023/06/22 04:43:59;;;;;;;10.60;7.37;;;22.00;99.90;;;;;;5202129;28;20480;-45
2023/06/22 04:46:30;;;;;;;10.40;6.83;;;22.40;99.90;;;;;;5199631;28;20183;-45
2023/06/22 04:49:01;;;;;;;7.87;7.07;;;22.90;99.90;;;;;;5172268;28;20438;-45
2023/06/22 04:51:32;;;;;;;6.80;6.10;;;23.40;99.90;;;;;;5207878;28;20656;-43
2023/06/22 04:54:05;;;;;;;10.23;6.27;;;23.80;99.90;;;;;;5191857;28;20218;-43
2023/06/22 04:56:37;;;;;;;11.33;6.20;;;24.10;99.90;;;;;;5202854;28;20491;-44
2023/06/22 04:59:08;;;;;;;6.33;4.97;;;24.20;99.90;;;;;;5185720;28;20430;-44
2023/06/22 05:01:39;;;;;;;5.90;5.03;;;24.60;99.90;;;;;;5188855;28;20263;-44
2023/06/22 05:04:10;;;;;;;4.87;4.57;;;24.90;99.90;;;;;;5195749;28;20530;-45
2023/06/22 05:06:40;;;;;;;5.80;4.63;;;25.20;99.90;;;;;;5202417;28;20644;-44
2023/06/22 05:09:12;;;;;;;7.40;4.23;;;25.10;99.90;;;;;;5198308;28;20180;-44
2023/06/22 05:11:43;;;;;;;7.80;4.60;;;25.20;99.90;;;;;;5172667;28;20187;-45
2023/06/22 05:14:14;;;;;;;12.27;4.97;;;25.50;99.80;;;;;;5179606;28;20462;-45
2023/06/22 05:16:45;;;;;;;4.80;4.20;;;25.90;97.70;;;;;;5198707;28;20496;-43
2023/06/22 05:19:16;;;;;;;4.57;4.20;;;26.20;95.10;;;;;;5206628;28;20175;-44
2023/06/22 05:21:47;;;;;;;5.97;4.60;;;26.10;94.60;;;;;;5188162;28;20501;-44
2023/06/22 05:24:18;;;;;;;5.10;3.70;;;25.50;95.00;;;;;;5200906;28;20521;-45
2023/06/22 05:26:48;;;;;;;4.50;3.50;;;25.10;95.80;;;;;;5193272;28;20215;-44
2023/06/22 05:29:19;;;;;;;12.13;4.33;;;25.30;94.80;;;;;;5190131;28;20207;-44
2023/06/22 05:31:50;;;;;;;4.47;3.20;;;24.80;94.10;;;;;;5205158;28;20664;-45
2023/06/22 05:34:21;;;;;;;4.00;3.70;;;24.30;95.00;;;;;;5202650;28;20219;-44
2023/06/22 05:36:51;;;;;;;4.57;4.10;;;23.70;96.20;;;;;;5189052;28;20686;-44
2023/06/22 05:39:22;;;;;;;3.47;3.27;;;23.50;98.20;;;;;;5191685;28;20256;-44
2023/06/22 05:41:53;;;;;;;17.90;4.03;;;23.40;99.20;;;;;;5204709;28;20180;-45
2023/06/22 05:44:31;;;;;;;5.23;3.60;;;23.90;99.70;;;;;;5196001;28;20187;-50
2023/06/22 05:47:02;;;;;;;5.87;3.30;;;24.30;98.30;;;;;;5190007;28;20207;-45
2023/06/22 05:49:33;;;;;;;8.60;4.77;;;24.30;98.00;;;;;;5201560;28;20438;-45
2023/06/22 05:52:04;;;;;;;7.40;4.37;;;24.20;97.60;;;;;;5194938;28;20443;-45
2023/06/22 05:54:35;;;;;;;4.90;3.90;;;24.00;97.50;;;;;;5184243;28;20272;-44
2023/06/22 05:57:06;;;;;;;6.40;3.93;;;23.60;97.80;;;;;;5200367;28;20456;-44
2023/06/22 05:59:37;;;;;;;4.43;4.07;;;23.50;98.50;;;;;;5197217;28;20439;-45
2023/06/22 06:02:07;;;;;;;5.77;3.57;;;23.80;98.50;;;;;;5208623;28;20182;-45
2023/06/22 06:04:38;;;;;;;21.33;4.90;;;24.10;98.70;;;;;;5206341;28;20180;-46
2023/06/22 06:07:09;;;;;;;4.33;3.90;;;25.50;96.00;;;;;;5189583;28;20671;-44
2023/06/22 06:09:40;;;;;;;4.93;4.33;;;25.90;94.20;;;;;;5191445;28;20183;-44
2023/06/22 06:12:12;;;;;;;3.60;3.37;;;25.80;93.10;;;;;;5189155;28;20183;-45
2023/06/22 06:14:42;;;;;;;7.40;3.50;;;26.20;92.50;;;;;;5199011;28;20249;-44
2023/06/22 06:17:13;;;;;;;3.90;3.57;;;27.20;90.30;;;;;;5195829;28;20450;-44
2023/06/22 06:19:44;;;;;;;4.53;4.00;;;27.80;84.30;;;;;;5207922;28;20239;-45
2023/06/22 06:22:15;;;;;;;6.83;4.20;;;27.70;83.50;;;;;;5200769;28;20271;-44
2023/06/22 06:24:49;;;;;;;4.33;3.90;;;29.00;78.00;;;;;;5191557;28;20192;-43
2023/06/22 06:27:19;;;;;;;3.37;3.17;;;30.50;69.60;;;;;;5209237;28;20216;-44
2023/06/22 06:29:50;;;;;;;7.80;3.63;;;31.60;61.00;;;;;;5201239;28;20426;-45
2023/06/22 06:32:21;;;;;;;3.63;3.33;;;32.20;55.60;;;;;;5204570;28;20191;-45
2023/06/22 06:34:52;;;;;;;4.97;3.93;;;32.30;53.20;;;;;;5195495;28;20176;-43
2023/06/22 06:37:22;;;;;;;4.53;2.90;;;32.40;51.50;;;;;;5206944;28;20207;-43
2023/06/22 06:39:53;;;;;;;3.13;2.93;;;32.40;50.40;;;;;;5200796;28;20229;-43
2023/06/22 06:42:24;;;;;;;3.73;3.43;;;32.40;49.70;;;;;;5208046;28;20183;-43
2023/06/22 06:44:55;;;;;;;2.73;2.63;;;32.80;49.10;;;;;;5193057;28;20175;-43
2023/06/22 06:47:25;;;;;;;3.83;3.53;;;33.50;47.40;;;;;;5193242;28;20210;-43
2023/06/22 06:49:56;;;;;;;3.23;2.20;;;33.90;44.80;;;;;;5202611;28;20222;-42
2023/06/22 06:52:27;;;;;;;6.23;2.77;;;33.70;45.80;;;;;;5172158;28;20215;-43
2023/06/22 06:54:58;;;;;;;3.17;2.37;;;33.50;44.20;;;;;;5201142;28;20182;-45
2023/06/22 06:57:28;;;;;;;3.50;2.43;;;32.80;45.30;;;;;;5195333;28;20207;-45
2023/06/22 06:59:59;;;;;;;3.00;2.73;;;33.50;44.70;;;;;;5204049;28;20202;-44
2023/06/22 07:02:30;;;;;;;4.83;2.73;;;34.00;44.70;;;;;;5199570;28;20187;-44
2023/06/22 07:05:04;;;;;;;2.10;2.00;;;34.90;41.60;;;;;;5186211;28;20347;-45
2023/06/22 07:07:35;;;;;;;2.93;2.73;;;35.10;41.00;;;;;;5169614;28;20238;-45
2023/06/22 07:10:07;;;;;;;2.43;2.23;;;35.40;39.30;;;;;;5184092;28;20535;-44
2023/06/22 07:12:37;;;;;;;7.10;2.50;;;34.70;39.50;;;;;;5196860;28;20209;-45
2023/06/22 07:15:10;;;;;;;3.37;3.00;;;33.50;41.30;;;;;;5205653;28;20282;-43
2023/06/22 07:17:40;;;;;;;2.27;2.20;;;33.00;42.00;;;;;;5203752;28;20207;-44
2023/06/22 07:20:12;;;;;;;4.67;2.40;;;33.20;41.50;;;;;;5182966;28;20202;-45
2023/06/22 07:22:44;;;;;;;2.80;2.60;;;33.80;41.40;;;;;;5205978;28;20262;-45
2023/06/22 07:25:15;;;;;;;3.37;3.07;;;33.30;42.30;;;;;;5214924;28;20187;-45
2023/06/22 07:27:57;;;;;;;3.10;2.73;;;33.20;42.00;;;;;;5207988;28;20217;-44
2023/06/22 07:30:28;;;;;;;2.83;2.63;;;33.30;42.10;;;;;;5176982;28;20194;-45
2023/06/22 07:33:04;;;;;;;5.50;2.90;;;33.60;40.70;;;;;;5205144;28;20537;-44
2023/06/22 07:35:35;;;;;;;5.30;2.80;;;34.10;39.90;;;;;;5179459;28;20433;-45
2023/06/22 07:38:06;;;;;;;2.70;2.60;;;33.90;38.90;;;;;;5188142;28;20818;-44
2023/06/22 07:40:36;;;;;;;2.27;2.17;;;32.50;40.30;;;;;;5202614;28;20453;-45
2023/06/22 07:43:07;;;;;;;7.13;2.80;;;31.30;43.40;;;;;;5202506;28;20261;-45
2023/06/22 07:45:40;;;;;;;3.23;3.03;;;31.60;44.30;;;;;;5197579;28;20209;-45
2023/06/22 07:48:11;;;;;;;7.37;2.63;;;32.30;42.20;;;;;;5190231;28;20633;-45
2023/06/22 07:50:41;;;;;;;6.90;2.80;;;33.10;41.30;;;;;;5197578;28;20445;-44
2023/06/22 07:53:12;;;;;;;2.60;2.50;;;33.00;39.70;;;;;;5188554;28;20202;-44
2023/06/22 07:55:43;;;;;;;3.17;1.93;;;32.70;40.10;;;;;;5181169;28;20191;-45
2023/06/22 07:58:13;;;;;;;2.97;2.70;;;33.00;40.20;;;;;;5204066;28;20218;-46
2023/06/22 08:00:44;;;;;;;5.50;1.93;;;32.80;40.10;;;;;;5189727;28;20176;-45
2023/06/22 08:03:24;;;;;;;10.93;2.70;;;32.10;41.20;;;;;;5196152;28;20348;-45
2023/06/22 08:05:56;;;;;;;3.10;2.80;;;31.30;42.40;;;;;;5189596;28;20266;-46
2023/06/22 08:08:26;;;;;;;3.30;2.87;;;30.60;43.30;;;;;;5189394;28;20545;-43
2023/06/22 08:10:57;;;;;;;7.30;2.93;;;30.30;43.80;;;;;;5188406;28;20510;-42
2023/06/22 08:13:29;;;;;;;9.03;3.07;;;30.00;44.60;;;;;;5190524;28;20207;-43
2023/06/22 08:16:02;;;;;;;2.97;2.70;;;30.50;44.40;;;;;;5210128;28;20432;-43
2023/06/22 08:18:32;;;;;;;2.77;2.57;;;30.60;43.40;;;;;;5194400;28;20448;-43
2023/06/22 08:21:03;;;;;;;1.93;1.83;;;30.20;44.40;;;;;;5182494;28;20516;-44
2023/06/22 08:23:34;;;;;;;2.30;2.20;;;29.60;45.40;;;;;;5203254;28;20247;-45
2023/06/22 08:26:05;;;;;;;2.07;2.07;;;29.40;45.40;;;;;;5193327;28;20273;-44
2023/06/22 08:28:36;;;;;;;3.17;2.60;;;29.60;46.00;;;;;;5168856;28;21042;-44
2023/06/22 08:31:08;;;;;;;3.70;2.30;;;29.10;45.30;;;;;;5206158;28;20187;-45
2023/06/22 08:33:39;;;;;;;2.67;2.47;;;28.90;46.20;;;;;;5194377;28;20209;-44
2023/06/22 08:36:10;;;;;;;2.20;2.10;;;28.60;46.30;;;;;;5190148;28;20545;-44
2023/06/22 08:38:41;;;;;;;2.63;2.37;;;28.20;46.50;;;;;;5172819;28;20201;-45
2023/06/22 08:41:12;;;;;;;2.40;2.13;;;27.80;47.70;;;;;;5192732;28;20529;-44
2023/06/22 08:43:44;;;;;;;4.60;2.40;;;27.60;47.60;;;;;;5207135;28;20242;-44
2023/06/22 08:46:19;;;;;;;2.10;2.00;;;27.40;47.70;;;;;;5205381;28;20199;-44
2023/06/22 08:48:50;;;;;;;3.17;2.30;;;27.40;48.60;;;;;;5186838;28;20473;-44
2023/06/22 08:51:21;;;;;;;9.20;2.20;;;27.40;49.30;;;;;;5192440;28;20840;-44
2023/06/22 08:53:52;;;;;;;2.37;2.27;;;27.50;49.20;;;;;;5198543;28;20213;-45
2023/06/22 08:56:23;;;;;;;5.60;3.00;;;27.30;49.50;;;;;;5192858;28;20181;-45
2023/06/22 08:58:54;;;;;;;2.67;2.53;;;27.40;49.40;;;;;;5192310;28;20195;-44
2023/06/22 09:01:24;;;;;;;2.77;2.67;;;27.30;49.50;;;;;;5191308;28;20464;-45
2023/06/22 09:03:55;;;;;;;3.80;2.70;;;27.30;49.90;;;;;;5182241;28;20186;-44
2023/06/22 09:06:26;;;;;;;2.67;2.47;;;27.40;50.50;;;;;;5210671;28;20195;-45
2023/06/22 09:08:59;;;;;;;2.60;2.40;;;27.30;50.30;;;;;;5197839;28;20196;-44
2023/06/22 09:11:30;;;;;;;2.70;2.53;;;27.20;50.90;;;;;;5200512;28;20207;-44
2023/06/22 09:14:01;;;;;;;3.50;1.87;;;27.10;51.20;;;;;;5193840;28;20470;-45
2023/06/22 09:16:31;;;;;;;3.00;2.90;;;27.20;50.90;;;;;;5202489;28;20180;-44
2023/06/22 09:19:02;;;;;;;3.33;3.07;;;27.50;50.20;;;;;;5172449;28;20280;-45
2023/06/22 09:21:33;;;;;;;3.43;2.50;;;27.90;49.20;;;;;;5205106;28;20186;-45
2023/06/22 09:24:04;;;;;;;6.33;2.23;;;28.30;47.50;;;;;;5191774;28;20241;-44
2023/06/22 09:26:35;;;;;;;2.80;2.10;;;28.50;46.50;;;;;;5202137;28;20184;-44
2023/06/22 09:29:06;;;;;;;2.80;2.50;;;28.70;47.00;;;;;;5199696;28;20434;-43
2023/06/22 09:31:37;;;;;;;2.83;2.63;;;28.70;46.10;;;;;;5203666;28;20218;-45
2023/06/22 09:34:08;;;;;;;2.43;2.33;;;28.70;46.00;;;;;;5201027;28;20218;-44
2023/06/22 09:36:44;;;;;;;3.10;2.23;;;28.70;46.40;;;;;;5189235;28;20191;-44
2023/06/22 09:39:18;;;;;;;2.80;1.80;;;28.80;45.30;;;;;;5201164;28;20459;-45
2023/06/22 09:41:49;;;;;;;2.03;1.87;;;28.90;45.80;;;;;;5204440;28;20834;-44
2023/06/22 09:44:20;;;;;;;2.50;2.10;;;29.20;45.80;;;;;;5184140;28;20439;-44
2023/06/22 09:46:50;;;;;;;3.10;2.10;;;29.20;45.60;;;;;;5186151;28;20219;-43
2023/06/22 09:49:21;;;;;;;4.40;2.40;;;29.20;45.00;;;;;;5203602;28;20172;-43
2023/06/22 09:51:52;;;;;;;5.40;2.50;;;29.30;44.70;;;;;;5200247;28;20565;-44
2023/06/22 09:54:23;;;;;;;2.87;2.43;;;29.20;45.00;;;;;;5191914;28;20215;-43
2023/06/22 09:56:54;;;;;;;2.63;2.20;;;29.30;45.40;;;;;;5208211;28;20206;-43
2023/06/22 09:59:24;;;;;;;2.90;2.67;;;29.40;45.50;;;;;;5205721;28;20239;-42
2023/06/22 10:01:55;;;;;;;2.70;2.60;;;29.40;45.20;;;;;;5191677;28;20191;-43
2023/06/22 10:04:26;;;;;;;2.90;2.77;;;29.00;46.20;;;;;;5206534;28;20191;-44
2023/06/22 10:06:57;;;;;;;2.40;2.30;;;28.70;47.00;;;;;;5210109;28;20211;-44
2023/06/22 10:09:28;;;;;;;3.93;3.17;;;28.40;47.50;;;;;;5191328;28;20464;-43
2023/06/22 10:11:59;;;;;;;2.70;2.50;;;28.30;47.90;;;;;;5192142;28;20241;-43
2023/06/22 10:14:29;;;;;;;2.60;2.40;;;28.40;48.20;;;;;;5192058;28;20215;-44
2023/06/22 10:17:00;;;;;;;2.50;2.30;;;28.40;47.70;;;;;;5205617;28;20211;-43
2023/06/22 10:19:31;;;;;;;3.73;3.17;;;28.50;47.80;;;;;;5203535;28;20180;-44
2023/06/22 10:22:05;;;;;;;2.77;2.57;;;28.20;47.90;;;;;;5208354;28;20187;-42
2023/06/22 10:24:35;;;;;;;3.80;2.70;;;28.00;48.50;;;;;;5196764;28;20193;-42
2023/06/22 10:27:06;;;;;;;3.43;3.23;;;28.00;48.40;;;;;;5194155;28;20476;-42
2023/06/22 10:29:37;;;;;;;3.90;2.87;;;28.20;48.20;;;;;;5207274;28;20206;-44
2023/06/22 10:32:08;;;;;;;2.60;2.40;;;28.20;48.10;;;;;;5205050;28;20528;-43
2023/06/22 10:34:39;;;;;;;2.87;2.63;;;28.20;48.10;;;;;;5208430;28;20458;-45
2023/06/22 10:37:10;;;;;;;6.40;2.73;;;28.50;48.30;;;;;;5201678;28;20314;-47
2023/06/22 10:39:41;;;;;;;3.40;3.20;;;28.80;47.90;;;;;;5199295;28;20237;-44
2023/06/22 10:42:12;;;;;;;2.63;2.50;;;28.90;47.00;;;;;;5188987;28;20219;-45
2023/06/22 10:44:44;;;;;;;3.30;3.00;;;28.80;47.00;;;;;;5186837;28;20435;-44
2023/06/22 10:47:15;;;;;;;6.20;3.80;;;28.80;47.40;;;;;;5177297;28;20966;-45
2023/06/22 10:49:46;;;;;;;3.00;2.90;;;28.70;47.70;;;;;;5207570;28;20430;-45
2023/06/22 10:52:16;;;;;;;2.83;2.63;;;28.60;48.20;;;;;;5188814;28;20199;-44
2023/06/22 10:54:47;;;;;;;2.87;2.63;;;28.20;48.40;;;;;;5190495;28;20658;-45
2023/06/22 10:57:18;;;;;;;2.80;2.67;;;28.00;49.30;;;;;;5187704;28;20570;-44
2023/06/22 10:59:49;;;;;;;5.40;2.90;;;27.80;48.60;;;;;;5191795;28;20278;-45
2023/06/22 11:02:20;;;;;;;3.23;2.83;;;27.60;49.30;;;;;;5207870;28;20184;-45
2023/06/22 11:04:51;;;;;;;4.83;2.73;;;27.50;49.20;;;;;;5170579;28;20661;-45
2023/06/22 11:07:21;;;;;;;6.33;2.40;;;27.40;49.50;;;;;;5208005;28;20200;-45
2023/06/22 11:09:52;;;;;;;4.27;2.77;;;27.30;49.60;;;;;;5206038;28;20214;-45
2023/06/22 11:12:24;;;;;;;3.00;2.80;;;27.10;49.70;;;;;;5185446;28;20242;-44
2023/06/22 11:14:57;;;;;;;3.93;2.97;;;27.20;50.30;;;;;;5197409;28;20588;-46
2023/06/22 11:17:27;;;;;;;2.73;2.53;;;27.40;50.30;;;;;;5183561;28;21057;-45
2023/06/22 11:20:00;;;;;;;4.13;2.80;;;27.60;49.40;;;;;;5200106;28;20519;-45
2023/06/22 11:22:33;;;;;;;3.43;3.10;;;27.90;49.60;;;;;;5206209;28;20176;-45
2023/06/22 11:25:04;;;;;;;2.90;2.70;;;28.10;49.20;;;;;;5200849;28;20496;-45
2023/06/22 11:27:35;;;;;;;3.80;2.70;;;28.00;48.30;;;;;;5204174;28;20496;-44
2023/06/22 11:30:06;;;;;;;3.10;3.00;;;27.90;48.50;;;;;;5202678;28;20458;-46
2023/06/22 11:32:37;;;;;;;5.30;3.23;;;28.00;48.20;;;;;;5182658;28;20204;-45
2023/06/22 11:35:09;;;;;;;4.10;2.83;;;27.90;48.00;;;;;;5200546;28;20923;-45
2023/06/22 11:37:39;;;;;;;8.67;3.33;;;28.00;48.40;;;;;;5198899;28;20627;-44
2023/06/22 11:40:10;;;;;;;3.00;2.80;;;28.00;48.20;;;;;;5205648;28;20469;-45
2023/06/22 11:42:41;;;;;;;3.23;2.47;;;27.90;48.40;;;;;;5204874;28;20191;-45
2023/06/22 11:45:12;;;;;;;8.27;2.60;;;27.80;48.80;;;;;;5201111;28;20513;-44
2023/06/22 11:47:43;;;;;;;3.07;2.90;;;27.80;48.40;;;;;;5198689;28;20676;-43
2023/06/22 11:50:14;;;;;;;3.33;3.03;;;27.90;48.30;;;;;;5200465;28;20251;-45
2023/06/22 11:52:44;;;;;;;3.30;3.00;;;28.00;48.40;;;;;;5187630;28;20294;-46
2023/06/22 11:55:15;;;;;;;2.70;2.50;;;28.00;47.80;;;;;;5178578;28;20438;-44
2023/06/22 11:57:59;;;;;;;2.77;2.57;;;28.20;48.40;;;;;;5189312;28;20207;-44
2023/06/22 12:00:30;;;;;;;2.73;2.63;;;28.30;47.60;;;;;;5202178;28;20903;-44
2023/06/22 12:03:01;;;;;;;2.33;2.23;;;28.40;47.60;;;;;;5190052;28;20438;-46
2023/06/22 12:05:31;;;;;;;2.90;2.70;;;28.30;47.30;;;;;;5202536;28;20624;-45
2023/06/22 12:08:02;;;;;;;4.50;2.77;;;28.30;47.90;;;;;;5186729;28;20579;-45
2023/06/22 12:10:34;;;;;;;3.50;3.20;;;28.30;47.40;;;;;;5198896;28;20205;-46
2023/06/22 12:13:04;;;;;;;7.13;3.27;;;28.30;47.00;;;;;;5204469;28;20264;-46
2023/06/22 12:15:35;;;;;;;3.00;2.87;;;28.30;47.60;;;;;;5189831;28;20462;-45
2023/06/22 12:18:06;;;;;;;3.03;2.83;;;28.20;47.60;;;;;;5202641;28;20203;-45
2023/06/22 12:20:37;;;;;;;2.60;2.40;;;28.20;47.50;;;;;;5199865;28;20263;-44
2023/06/22 12:23:08;;;;;;;3.50;3.20;;;28.30;47.90;;;;;;5204856;28;20757;-46
2023/06/22 12:25:38;;;;;;;2.43;2.33;;;28.60;47.20;;;;;;5183524;28;20299;-44
2023/06/22 12:28:09;;;;;;;2.70;2.60;;;28.60;47.50;;;;;;5184824;28;20203;-44
2023/06/22 12:30:40;;;;;;;2.70;2.50;;;28.40;47.50;;;;;;5159544;28;20279;-46
2023/06/22 12:33:10;;;;;;;2.83;2.73;;;28.30;47.60;;;;;;5205136;28;20204;-45
2023/06/22 12:35:41;;;;;;;3.13;2.83;;;28.30;47.70;;;;;;5194164;28;20549;-45
2023/06/22 12:38:12;;;;;;;2.87;2.77;;;28.30;47.20;;;;;;5204172;28;20290;-44
2023/06/22 12:40:43;;;;;;;3.10;2.90;;;28.20;47.90;;;;;;5198727;28;20200;-45
2023/06/22 12:43:13;;;;;;;5.57;3.40;;;28.20;47.70;;;;;;5197499;28;20551;-45
2023/06/22 12:45:44;;;;;;;3.80;3.37;;;28.20;48.30;;;;;;5184380;28;20263;-44
2023/06/22 12:48:15;;;;;;;3.33;3.13;;;28.30;47.90;;;;;;5189109;28;20203;-43
2023/06/22 12:50:47;;;;;;;3.47;2.83;;;28.20;48.00;;;;;;5204213;28;20176;-45
2023/06/22 12:53:18;;;;;;;2.97;2.77;;;28.10;47.90;;;;;;5184364;28;20463;-44
2023/06/22 12:55:49;;;;;;;7.10;4.33;;;27.90;48.60;;;;;;5197834;28;20430;-45
2023/06/22 12:58:20;;;;;;;3.13;2.90;;;27.80;48.60;;;;;;5198868;28;20203;-44
2023/06/22 13:00:50;;;;;;;7.27;3.70;;;27.80;49.30;;;;;;5187738;28;20560;-44
2023/06/22 13:03:25;;;;;;;3.30;3.10;;;27.90;48.50;;;;;;5189007;28;20183;-49